Time;durP1;ratioP1;P1;durP2;ratioP2;P2;SDS_P1;SDS_P2;PMS_P1;PMS_P2;Temp;Humidity;BMP_temperature;BMP_pressure;BME280_temperature;BME280_humidity;BME280_pressure;Samples;Min_cycle;Max_cycle;Signal;HPM_P1;HPM_P2
2022/11/07 00:00:05;;;;;;;0.90;0.60;;;10.80;76.70;;;;;;5015033;28;20153;-84
2022/11/07 00:02:31;;;;;;;1.25;0.70;;;10.80;76.50;;;;;;5015779;28;20049;-81
2022/11/07 00:04:56;;;;;;;1.92;0.60;;;10.80;76.50;;;;;;5016585;28;20475;-83
2022/11/07 00:07:22;;;;;;;2.47;0.70;;;10.80;76.80;;;;;;5015669;28;20033;-83
2022/11/07 00:09:47;;;;;;;1.90;0.50;;;10.80;76.50;;;;;;4998422;28;20437;-82
2022/11/07 00:12:13;;;;;;;1.95;0.80;;;10.90;76.50;;;;;;5014483;28;20037;-80
2022/11/07 00:14:38;;;;;;;2.72;0.73;;;10.90;76.60;;;;;;4996155;28;20022;-82
2022/11/07 00:17:04;;;;;;;2.42;0.95;;;10.80;76.50;;;;;;5013786;28;20388;-83
2022/11/07 00:19:30;;;;;;;2.33;0.63;;;10.70;76.50;;;;;;5013644;28;20018;-82
2022/11/07 00:21:55;;;;;;;1.55;0.90;;;10.80;76.60;;;;;;4996098;28;20037;-82
2022/11/07 00:24:21;;;;;;;2.75;0.82;;;10.70;76.60;;;;;;4995834;28;20025;-82
2022/11/07 00:26:46;;;;;;;2.50;0.63;;;10.70;76.70;;;;;;4996084;28;20068;-82
2022/11/07 00:29:17;;;;;;;1.40;0.55;;;10.70;76.80;;;;;;5012994;28;20101;-79
2022/11/07 00:31:42;;;;;;;1.75;0.60;;;10.70;76.80;;;;;;5013558;28;20572;-80
2022/11/07 00:34:08;;;;;;;4.80;1.10;;;10.70;77.00;;;;;;5013359;28;20025;-81
2022/11/07 00:36:34;;;;;;;2.00;0.80;;;10.70;76.80;;;;;;5013455;28;20033;-81
2022/11/07 00:38:59;;;;;;;2.47;0.80;;;10.70;76.80;;;;;;5013386;28;20022;-81
2022/11/07 00:41:25;;;;;;;1.75;0.77;;;10.70;76.80;;;;;;4995644;28;20075;-82
2022/11/07 00:43:52;;;;;;;2.70;1.00;;;10.60;77.00;;;;;;5013202;28;20107;-80
2022/11/07 00:46:18;;;;;;;1.42;0.80;;;10.70;76.70;;;;;;5016566;28;20045;-81
2022/11/07 00:48:44;;;;;;;3.20;0.95;;;10.70;76.70;;;;;;5033057;28;20025;-83
2022/11/07 00:51:18;;;;;;;3.47;1.00;;;10.70;76.80;;;;;;5032441;28;20371;-81
2022/11/07 00:53:44;;;;;;;3.15;0.95;;;10.80;76.70;;;;;;5032918;28;20018;-80
2022/11/07 00:56:12;;;;;;;2.63;0.70;;;10.70;76.80;;;;;;5032987;28;20024;-80
2022/11/07 00:58:38;;;;;;;2.67;0.90;;;10.70;76.80;;;;;;5032871;28;20025;-80
2022/11/07 01:01:26;;;;;;;4.05;1.02;;;10.70;76.90;;;;;;5032681;28;20550;-82
2022/11/07 01:06:51;;;;;;;4.95;0.80;;;10.70;76.80;;;;;;5008416;28;20029;-80
2022/11/07 01:09:20;;;;;;;2.25;0.80;;;10.80;76.70;;;;;;5014923;28;20119;-80
2022/11/07 01:11:46;;;;;;;3.60;1.00;;;10.80;76.80;;;;;;5032660;28;20034;-80
2022/11/07 01:14:13;;;;;;;4.03;1.20;;;10.70;76.90;;;;;;5032739;28;20084;-80
2022/11/07 01:16:40;;;;;;;3.10;1.00;;;10.80;76.70;;;;;;5032685;28;20060;-80
2022/11/07 01:19:06;;;;;;;3.53;0.88;;;10.70;76.80;;;;;;5032384;28;20480;-79
2022/11/07 01:21:32;;;;;;;4.43;1.10;;;10.70;76.80;;;;;;5032710;28;20038;-81
2022/11/07 01:23:59;;;;;;;2.17;0.82;;;10.70;76.90;;;;;;5032800;28;20105;-80
2022/11/07 01:26:24;;;;;;;3.30;0.80;;;10.70;76.90;;;;;;5014825;28;20036;-81
2022/11/07 01:28:50;;;;;;;3.65;1.00;;;10.70;77.00;;;;;;5032430;28;20018;-82
2022/11/07 01:31:16;;;;;;;4.75;0.90;;;10.70;77.10;;;;;;5014749;28;20025;-80
2022/11/07 01:33:42;;;;;;;6.32;0.98;;;10.70;76.70;;;;;;5032498;28;20033;-80
2022/11/07 01:36:11;;;;;;;3.08;0.98;;;10.70;76.70;;;;;;5032322;28;20040;-80
2022/11/07 01:38:42;;;;;;;4.18;0.80;;;10.70;76.30;;;;;;5032612;28;20032;-80
2022/11/07 01:41:20;;;;;;;4.22;0.80;;;10.70;76.40;;;;;;5016746;28;20036;-80
2022/11/07 01:44:05;;;;;;;4.07;0.70;;;10.70;76.50;;;;;;5036199;28;20022;-79
2022/11/07 01:46:43;;;;;;;3.53;0.70;;;10.70;76.60;;;;;;5035859;28;20045;-79
2022/11/07 01:49:12;;;;;;;5.05;0.98;;;10.60;76.50;;;;;;5036357;28;20037;-78
2022/11/07 01:51:48;;;;;;;1.63;0.93;;;10.70;76.30;;;;;;5018267;28;20501;-81
2022/11/07 01:54:17;;;;;;;2.67;0.75;;;10.70;76.30;;;;;;5035918;28;20052;-80
2022/11/07 01:56:44;;;;;;;3.47;1.05;;;10.70;76.30;;;;;;5036007;28;20134;-80
2022/11/07 01:59:15;;;;;;;4.63;1.05;;;10.70;76.10;;;;;;5035985;28;20025;-80
2022/11/07 02:01:41;;;;;;;2.28;0.98;;;10.70;75.90;;;;;;5018253;28;20029;-81
2022/11/07 02:04:08;;;;;;;4.80;0.90;;;10.80;75.70;;;;;;5020505;28;20120;-80
2022/11/07 02:06:43;;;;;;;1.73;0.60;;;10.70;75.70;;;;;;5048617;28;20089;-80
2022/11/07 02:09:09;;;;;;;2.60;0.50;;;10.80;75.60;;;;;;5060864;28;20009;-81
2022/11/07 02:11:35;;;;;;;4.15;0.70;;;10.90;75.10;;;;;;5059865;28;20022;-80
2022/11/07 02:14:01;;;;;;;4.60;1.20;;;10.90;75.20;;;;;;5031958;28;20497;-81
2022/11/07 02:16:28;;;;;;;5.53;0.80;;;10.90;75.40;;;;;;5036452;28;20047;-81
2022/11/07 02:18:54;;;;;;;2.28;0.52;;;10.90;75.20;;;;;;5018598;28;20120;-81
2022/11/07 02:21:28;;;;;;;1.98;0.80;;;11.00;75.40;;;;;;5017590;28;20032;-81
2022/11/07 02:24:07;;;;;;;3.05;1.08;;;11.00;75.30;;;;;;5018056;28;20348;-80
2022/11/07 02:26:35;;;;;;;1.63;0.60;;;11.00;75.30;;;;;;5011224;28;20442;-80
2022/11/07 02:29:03;;;;;;;4.03;0.68;;;11.00;75.30;;;;;;5035353;28;20100;-80
2022/11/07 02:31:29;;;;;;;2.47;0.60;;;11.00;75.80;;;;;;5035036;28;20099;-80
2022/11/07 02:33:55;;;;;;;1.63;0.60;;;11.10;76.90;;;;;;5017893;28;20029;-80
2022/11/07 02:36:23;;;;;;;9.48;0.88;;;11.10;76.30;;;;;;5035266;28;20465;-80
2022/11/07 02:38:56;;;;;;;1.60;0.80;;;11.10;76.40;;;;;;5017475;28;20026;-80
2022/11/07 02:41:29;;;;;;;4.07;0.82;;;11.00;76.40;;;;;;5017308;28;20022;-80
2022/11/07 02:43:58;;;;;;;2.13;0.55;;;11.10;76.50;;;;;;5035309;28;20116;-79
2022/11/07 02:46:26;;;;;;;1.73;0.65;;;11.10;76.50;;;;;;5027085;28;20049;-79
2022/11/07 02:48:57;;;;;;;1.83;0.45;;;11.00;76.50;;;;;;5017495;28;20029;-81
2022/11/07 02:51:23;;;;;;;1.63;0.63;;;11.10;76.70;;;;;;5026826;28;20025;-81
2022/11/07 02:53:49;;;;;;;3.50;0.60;;;11.00;76.80;;;;;;5035027;28;20026;-80
2022/11/07 02:56:16;;;;;;;2.53;0.60;;;11.00;76.90;;;;;;5034965;28;20033;-80
2022/11/07 02:58:41;;;;;;;2.15;0.57;;;11.00;76.70;;;;;;5034680;28;20029;-79
2022/11/07 03:01:07;;;;;;;0.93;0.20;;;11.00;76.60;;;;;;5017462;28;20085;-83
2022/11/07 03:03:35;;;;;;;5.00;0.70;;;11.00;76.50;;;;;;5034810;28;20099;-81
2022/11/07 03:06:01;;;;;;;3.83;0.57;;;11.00;76.50;;;;;;5016902;28;20017;-80
2022/11/07 03:08:27;;;;;;;1.30;0.68;;;10.90;76.70;;;;;;5016693;28;20026;-80
2022/11/07 03:10:53;;;;;;;2.58;0.85;;;10.90;76.70;;;;;;5017254;28;20378;-81
2022/11/07 03:13:18;;;;;;;2.35;0.60;;;10.80;76.70;;;;;;5016813;28;20030;-80
2022/11/07 03:15:44;;;;;;;2.60;0.55;;;10.90;76.80;;;;;;5034425;28;20025;-80
2022/11/07 03:18:09;;;;;;;3.08;0.68;;;10.80;76.80;;;;;;5035205;28;20033;-82
2022/11/07 03:20:35;;;;;;;1.83;0.40;;;10.90;76.80;;;;;;5054593;28;20021;-82
2022/11/07 03:23:01;;;;;;;2.28;0.70;;;10.90;76.80;;;;;;5036769;28;20028;-81
2022/11/07 03:25:26;;;;;;;8.85;1.02;;;10.90;76.50;;;;;;5054265;28;20029;-82
2022/11/07 03:27:52;;;;;;;2.53;0.75;;;11.00;76.40;;;;;;5053039;28;20021;-82
2022/11/07 03:30:17;;;;;;;3.33;0.60;;;11.10;75.90;;;;;;5036487;28;20420;-82
2022/11/07 03:32:43;;;;;;;4.45;0.63;;;11.20;75.00;;;;;;5054248;28;20037;-81
2022/11/07 03:35:09;;;;;;;3.92;0.85;;;11.30;74.70;;;;;;5036175;28;20074;-81
2022/11/07 03:37:35;;;;;;;3.55;1.00;;;11.30;74.40;;;;;;5054252;28;20029;-81
2022/11/07 03:40:01;;;;;;;1.95;0.52;;;11.30;74.20;;;;;;5054115;28;20485;-81
2022/11/07 03:42:26;;;;;;;2.03;0.70;;;11.30;74.10;;;;;;5035784;28;20025;-81
2022/11/07 03:44:52;;;;;;;2.75;0.73;;;11.30;74.40;;;;;;5053753;28;20489;-81
2022/11/07 03:47:17;;;;;;;4.57;0.93;;;11.30;74.50;;;;;;5071760;28;20071;-81
2022/11/07 03:49:43;;;;;;;5.22;1.17;;;11.30;74.30;;;;;;5045745;28;20035;-81
2022/11/07 03:52:08;;;;;;;4.38;0.70;;;11.30;74.50;;;;;;5035633;28;20493;-81
2022/11/07 03:54:34;;;;;;;1.83;0.52;;;11.30;74.20;;;;;;5053773;28;20386;-81
2022/11/07 03:56:59;;;;;;;5.47;0.63;;;11.30;74.20;;;;;;5035911;28;20115;-81
2022/11/07 03:59:25;;;;;;;2.90;0.68;;;11.20;74.20;;;;;;5053702;28;20032;-82
2022/11/07 04:01:51;;;;;;;2.70;0.80;;;11.20;74.20;;;;;;5035589;28;20024;-81
2022/11/07 04:04:16;;;;;;;2.35;0.68;;;11.20;74.30;;;;;;5053092;28;20040;-80
2022/11/07 04:06:42;;;;;;;3.13;0.80;;;11.20;74.30;;;;;;5053536;28;20025;-81
2022/11/07 04:09:07;;;;;;;5.70;0.98;;;11.30;74.10;;;;;;5035792;28;20083;-81
2022/11/07 04:17:19;;;;;;;4.68;1.02;;;11.30;73.90;;;;;;5066357;28;20051;-79
2022/11/07 04:19:47;;;;;;;4.00;0.80;;;11.40;73.70;;;;;;5077251;28;20033;-79
2022/11/07 04:22:12;;;;;;;1.33;0.60;;;11.40;73.50;;;;;;5065074;28;20048;-80
2022/11/07 04:24:39;;;;;;;4.55;0.88;;;11.40;73.50;;;;;;5053844;28;20470;-80
2022/11/07 04:29:48;;;;;;;4.05;1.00;;;11.40;73.60;;;;;;5055643;28;20035;-81
2022/11/07 04:32:14;;;;;;;2.92;0.80;;;11.40;73.80;;;;;;5062137;28;20092;-80
2022/11/07 04:34:39;;;;;;;2.03;0.60;;;11.30;73.80;;;;;;5059936;28;20017;-80
2022/11/07 04:37:05;;;;;;;6.22;0.95;;;11.30;74.00;;;;;;5078119;28;20077;-81
2022/11/07 04:39:30;;;;;;;3.00;0.93;;;11.30;73.80;;;;;;5062641;28;20025;-81
2022/11/07 04:41:56;;;;;;;2.70;1.23;;;11.30;74.00;;;;;;5056045;28;20032;-81
2022/11/07 04:44:22;;;;;;;4.82;1.08;;;11.30;74.10;;;;;;5053133;28;20536;-81
2022/11/07 04:46:47;;;;;;;8.07;1.42;;;11.30;74.10;;;;;;5052526;28;20053;-81
2022/11/07 04:49:14;;;;;;;5.97;1.10;;;11.30;74.00;;;;;;5052870;28;20458;-81
2022/11/07 04:51:43;;;;;;;6.05;1.20;;;11.30;74.00;;;;;;5052781;28;20445;-79
2022/11/07 04:54:14;;;;;;;4.30;1.00;;;11.40;74.20;;;;;;5052992;28;20464;-78
2022/11/07 04:56:40;;;;;;;7.13;1.00;;;11.40;73.10;;;;;;5052657;28;20434;-81
2022/11/07 04:59:08;;;;;;;6.15;1.52;;;11.50;73.10;;;;;;5035103;28;20431;-79
2022/11/07 05:01:34;;;;;;;7.28;1.27;;;11.50;73.30;;;;;;5034888;28;20381;-79
2022/11/07 05:03:59;;;;;;;19.30;3.17;;;11.50;72.70;;;;;;5052784;28;20024;-77
2022/11/07 05:06:25;;;;;;;13.35;1.52;;;11.50;75.10;;;;;;5052605;28;20041;-76
2022/11/07 05:08:51;;;;;;;2.92;1.25;;;11.70;74.50;;;;;;5034848;28;20495;-77
2022/11/07 05:11:16;;;;;;;6.40;1.63;;;11.80;72.40;;;;;;5052525;28;20123;-77
2022/11/07 05:13:42;;;;;;;7.85;1.80;;;11.90;71.80;;;;;;5034554;28;20021;-76
2022/11/07 05:16:18;;;;;;;3.33;1.48;;;11.80;72.00;;;;;;5054707;28;20389;-77
2022/11/07 05:18:44;;;;;;;2.92;1.10;;;11.80;72.30;;;;;;5056586;28;20021;-78
2022/11/07 05:21:10;;;;;;;4.50;1.58;;;11.90;72.20;;;;;;5038862;28;20055;-81
2022/11/07 05:23:35;;;;;;;6.03;0.90;;;11.90;71.60;;;;;;5056851;28;20025;-78
2022/11/07 05:26:01;;;;;;;7.88;1.13;;;11.80;71.50;;;;;;5056517;28;20025;-80
2022/11/07 05:28:31;;;;;;;2.67;0.90;;;11.70;71.80;;;;;;5038555;28;20029;-80
2022/11/07 05:30:58;;;;;;;4.82;0.90;;;11.60;71.90;;;;;;5055990;28;20025;-79
2022/11/07 05:33:24;;;;;;;4.70;0.98;;;11.60;72.20;;;;;;5056616;28;20381;-80
2022/11/07 05:35:50;;;;;;;4.30;1.35;;;11.50;72.40;;;;;;5056264;28;20025;-80
2022/11/07 05:38:15;;;;;;;4.95;1.33;;;11.50;72.50;;;;;;5056311;28;20029;-81
2022/11/07 05:40:41;;;;;;;9.68;1.27;;;11.40;72.60;;;;;;5056310;28;20029;-80
2022/11/07 05:43:09;;;;;;;11.60;1.15;;;11.40;72.70;;;;;;5056085;28;20024;-79
2022/11/07 05:45:39;;;;;;;3.45;0.88;;;11.30;72.80;;;;;;5056495;28;20389;-79
2022/11/07 05:48:11;;;;;;;5.88;1.83;;;11.30;73.00;;;;;;5056089;28;20047;-80
2022/11/07 05:50:37;;;;;;;6.72;1.23;;;11.30;73.20;;;;;;5056351;28;20023;-80
2022/11/07 05:53:04;;;;;;;5.55;1.77;;;11.30;72.80;;;;;;5056099;28;20071;-79
2022/11/07 05:55:30;;;;;;;3.80;0.65;;;11.40;72.60;;;;;;5055908;28;20020;-80
2022/11/07 05:57:56;;;;;;;4.45;1.17;;;11.30;72.40;;;;;;5055906;28;20029;-80
2022/11/07 06:00:22;;;;;;;5.78;1.13;;;11.40;72.10;;;;;;5056016;28;20032;-79
2022/11/07 06:02:55;;;;;;;6.50;0.95;;;11.50;71.90;;;;;;5055800;28;20359;-80
2022/11/07 06:05:21;;;;;;;4.70;1.23;;;11.50;71.80;;;;;;5055843;28;20025;-79
2022/11/07 06:07:46;;;;;;;4.28;1.35;;;11.50;71.60;;;;;;5055749;28;20021;-80
2022/11/07 06:10:12;;;;;;;3.42;0.98;;;11.50;71.50;;;;;;5055695;28;20029;-79
2022/11/07 06:12:37;;;;;;;2.65;0.65;;;11.50;71.60;;;;;;5055225;28;20037;-79
2022/11/07 06:15:03;;;;;;;3.30;0.73;;;11.50;71.70;;;;;;5055462;28;20056;-79
2022/11/07 06:17:29;;;;;;;4.22;0.80;;;11.40;72.00;;;;;;5055593;28;20053;-79
2022/11/07 06:19:54;;;;;;;3.60;1.08;;;11.40;72.10;;;;;;5055397;28;20017;-80
2022/11/07 06:22:20;;;;;;;4.15;1.05;;;11.30;72.30;;;;;;5037089;28;20066;-79
2022/11/07 06:24:46;;;;;;;5.03;1.00;;;11.30;72.40;;;;;;5055165;28;20025;-80
2022/11/07 06:27:11;;;;;;;6.47;0.85;;;11.30;72.80;;;;;;5054182;28;20017;-78
2022/11/07 06:29:37;;;;;;;4.63;1.35;;;11.20;72.80;;;;;;5054983;28;20028;-80
2022/11/07 06:32:02;;;;;;;4.90;1.00;;;11.10;73.10;;;;;;5054810;28;20478;-80
2022/11/07 06:34:28;;;;;;;4.10;1.10;;;11.10;73.20;;;;;;5054634;28;20100;-79
2022/11/07 06:36:54;;;;;;;5.70;1.30;;;11.10;73.20;;;;;;5054927;28;20476;-79
2022/11/07 06:39:21;;;;;;;3.92;1.10;;;11.10;73.10;;;;;;5037028;28;20063;-79
2022/11/07 06:41:50;;;;;;;5.35;1.00;;;11.10;73.10;;;;;;5054926;28;20017;-80
2022/11/07 06:44:16;;;;;;;3.97;0.98;;;11.10;72.70;;;;;;5037037;28;20025;-79
2022/11/07 06:46:42;;;;;;;6.15;1.33;;;11.10;72.80;;;;;;5054539;28;20505;-80
2022/11/07 06:49:09;;;;;;;7.60;1.25;;;11.10;72.80;;;;;;5054839;28;20504;-80
2022/11/07 06:51:34;;;;;;;7.53;1.20;;;11.10;72.80;;;;;;5054755;28;20477;-77
2022/11/07 06:54:00;;;;;;;5.85;1.60;;;11.10;72.90;;;;;;5054539;28;20036;-79
2022/11/07 06:56:25;;;;;;;10.27;1.45;;;11.10;72.70;;;;;;5054658;28;20027;-79
2022/11/07 06:58:51;;;;;;;4.22;1.00;;;11.10;72.50;;;;;;5054439;28;20381;-79
2022/11/07 07:01:16;;;;;;;9.00;1.40;;;11.10;72.20;;;;;;5054796;28;20039;-79
2022/11/07 07:03:42;;;;;;;5.45;1.27;;;11.20;72.00;;;;;;5054597;28;20052;-79
2022/11/07 07:06:15;;;;;;;3.70;0.80;;;11.20;71.80;;;;;;5054730;28;20384;-79
2022/11/07 07:08:41;;;;;;;4.55;1.10;;;11.30;71.50;;;;;;5054227;28;20170;-79
2022/11/07 07:11:10;;;;;;;3.80;1.13;;;11.30;71.40;;;;;;5054228;28;20079;-78
2022/11/07 07:13:36;;;;;;;4.47;1.17;;;11.40;71.40;;;;;;5036973;28;20078;-79
2022/11/07 07:16:01;;;;;;;6.90;1.17;;;11.40;71.40;;;;;;5067496;28;20021;-78
2022/11/07 07:18:27;;;;;;;2.97;1.05;;;11.50;71.00;;;;;;5056520;28;20113;-80
2022/11/07 07:21:14;;;;;;;7.38;1.10;;;11.60;70.80;;;;;;5054547;28;20024;-80
2022/11/07 07:23:40;;;;;;;6.93;1.30;;;11.60;70.40;;;;;;5054668;28;20032;-79
2022/11/07 07:26:10;;;;;;;4.20;1.17;;;11.70;70.10;;;;;;5057177;28;20025;-80
2022/11/07 07:28:38;;;;;;;4.68;1.23;;;11.70;70.40;;;;;;5064685;28;20021;-79
2022/11/07 07:31:14;;;;;;;6.68;0.88;;;11.70;70.10;;;;;;5062601;28;20048;-79
2022/11/07 07:33:41;;;;;;;9.60;1.10;;;11.70;69.90;;;;;;5057334;28;20036;-78
2022/11/07 07:36:08;;;;;;;4.70;1.15;;;11.70;69.60;;;;;;5056382;28;20146;-79
2022/11/07 07:38:34;;;;;;;4.93;1.00;;;11.70;69.40;;;;;;5053176;28;20033;-79
2022/11/07 07:41:00;;;;;;;6.45;2.25;;;11.80;68.90;;;;;;5053903;28;20025;-79
2022/11/07 07:43:26;;;;;;;7.80;1.30;;;11.80;68.10;;;;;;5053825;28;20198;-79
2022/11/07 07:45:52;;;;;;;4.95;1.00;;;11.90;67.80;;;;;;5053505;28;20021;-79
2022/11/07 07:48:18;;;;;;;6.68;1.10;;;11.90;67.50;;;;;;5053580;28;20056;-78
2022/11/07 07:50:47;;;;;;;8.20;1.10;;;12.00;67.50;;;;;;5053857;28;20020;-79
2022/11/07 07:53:15;;;;;;;9.10;1.05;;;12.00;67.10;;;;;;5035791;28;20068;-80
2022/11/07 07:55:41;;;;;;;2.30;0.80;;;12.00;67.10;;;;;;5035676;28;20052;-85
2022/11/07 07:58:06;;;;;;;4.70;1.23;;;12.00;67.00;;;;;;5053814;28;20052;-85
2022/11/07 08:00:32;;;;;;;5.25;1.10;;;12.00;67.60;;;;;;5054121;28;20021;-84
2022/11/07 08:03:02;;;;;;;9.10;1.17;;;12.00;68.50;;;;;;5053425;28;20124;-82
2022/11/07 08:05:28;;;;;;;9.10;1.25;;;12.00;67.20;;;;;;5035394;28;20021;-82
2022/11/07 08:07:53;;;;;;;2.88;1.00;;;12.10;67.00;;;;;;5034951;28;20075;-81
2022/11/07 08:10:19;;;;;;;5.05;1.20;;;12.10;67.10;;;;;;5035314;28;20040;-82
2022/11/07 08:12:49;;;;;;;6.95;0.73;;;12.10;67.10;;;;;;5053035;28;20079;-81
2022/11/07 08:15:16;;;;;;;10.75;1.10;;;12.10;66.60;;;;;;5052985;28;20048;-80
2022/11/07 08:17:42;;;;;;;4.25;0.98;;;12.20;67.30;;;;;;5053033;28;20025;-81
2022/11/07 08:20:09;;;;;;;5.40;1.30;;;12.20;66.20;;;;;;5053103;28;20141;-81
2022/11/07 08:22:38;;;;;;;5.47;1.50;;;12.30;66.40;;;;;;5052891;28;20078;-81
2022/11/07 08:25:08;;;;;;;6.57;1.48;;;12.30;66.50;;;;;;5053148;28;20032;-81
2022/11/07 08:27:35;;;;;;;7.55;0.90;;;12.30;66.50;;;;;;5052361;28;20021;-82
2022/11/07 08:30:01;;;;;;;2.75;0.80;;;12.30;66.30;;;;;;5050893;28;20036;-81
2022/11/07 08:32:28;;;;;;;5.03;1.23;;;12.40;65.80;;;;;;5051349;28;20615;-80
2022/11/07 08:34:54;;;;;;;8.30;1.10;;;12.40;65.80;;;;;;5051884;28;20021;-82
2022/11/07 08:37:19;;;;;;;3.45;1.00;;;12.50;65.60;;;;;;5052589;28;20051;-81
2022/11/07 08:39:45;;;;;;;7.55;1.00;;;12.50;65.40;;;;;;5052666;28;20017;-82
2022/11/07 08:42:10;;;;;;;5.53;0.80;;;12.60;65.20;;;;;;5052699;28;20040;-82
2022/11/07 08:44:36;;;;;;;3.97;1.00;;;12.60;65.40;;;;;;5052787;28;20017;-82
2022/11/07 08:47:03;;;;;;;9.20;1.17;;;12.60;65.90;;;;;;5052426;28;20083;-82
2022/11/07 08:49:28;;;;;;;5.13;0.93;;;12.60;65.80;;;;;;5035596;28;20490;-90
2022/11/07 08:51:54;;;;;;;8.77;1.08;;;12.60;66.20;;;;;;5052294;28;20113;-80
2022/11/07 08:54:20;;;;;;;6.88;1.30;;;12.60;65.90;;;;;;5047312;28;20083;-85
2022/11/07 08:56:46;;;;;;;3.95;1.00;;;12.60;66.30;;;;;;5052152;28;20033;-82
2022/11/07 08:59:12;;;;;;;4.47;0.68;;;12.60;66.30;;;;;;5033586;28;20021;-82
2022/11/07 09:01:38;;;;;;;6.00;1.20;;;12.70;67.00;;;;;;5034280;28;20115;-81
2022/11/07 09:04:04;;;;;;;6.22;1.23;;;12.70;67.40;;;;;;5052253;28;20101;-82
2022/11/07 09:06:31;;;;;;;6.72;0.95;;;12.70;67.60;;;;;;5034334;28;20017;-82
2022/11/07 09:08:57;;;;;;;6.72;1.00;;;12.80;67.30;;;;;;5034730;28;20028;-82
2022/11/07 09:11:24;;;;;;;10.77;1.30;;;12.90;67.00;;;;;;5052637;28;20067;-88
2022/11/07 09:13:50;;;;;;;5.60;1.00;;;12.90;67.30;;;;;;5053375;28;20044;-87
2022/11/07 09:16:16;;;;;;;6.65;1.25;;;13.00;66.60;;;;;;5035907;28;20069;-86
2022/11/07 09:18:42;;;;;;;9.32;2.85;;;13.00;66.70;;;;;;5053741;28;20393;-86
2022/11/07 09:21:08;;;;;;;9.10;3.33;;;13.10;66.80;;;;;;5048773;28;20021;-87
2022/11/07 09:23:33;;;;;;;6.93;0.88;;;13.10;66.60;;;;;;5031541;28;20018;-88
2022/11/07 09:26:02;;;;;;;7.32;1.13;;;13.30;66.50;;;;;;5056143;28;20044;-85
2022/11/07 09:28:28;;;;;;;6.50;1.35;;;13.30;66.20;;;;;;5043283;28;20111;-81
2022/11/07 09:30:56;;;;;;;8.38;1.70;;;13.60;65.90;;;;;;5057098;28;20033;-89
2022/11/07 09:33:22;;;;;;;5.00;1.55;;;13.60;65.20;;;;;;5036209;28;20020;-88
2022/11/07 09:35:48;;;;;;;4.82;1.23;;;13.60;65.20;;;;;;5036485;28;20021;-88
2022/11/07 09:38:14;;;;;;;5.93;1.27;;;13.60;65.20;;;;;;5054073;28;20029;-82
2022/11/07 09:41:03;;;;;;;5.18;1.15;;;13.80;65.70;;;;;;5053501;28;20039;-88
2022/11/07 09:43:48;;;;;;;8.30;1.30;;;13.70;64.20;;;;;;5053445;28;20021;-88
2022/11/07 09:46:55;;;;;;;4.80;1.33;;;13.70;64.80;;;;;;5034979;28;20028;-83
2022/11/07 09:49:29;;;;;;;10.38;1.38;;;13.80;64.30;;;;;;5034701;28;20055;-83
2022/11/07 09:52:04;;;;;;;4.85;1.20;;;13.90;63.90;;;;;;5052070;28;20064;-81
2022/11/07 09:54:33;;;;;;;3.60;0.75;;;14.00;63.10;;;;;;5051935;28;20097;-80
2022/11/07 09:56:59;;;;;;;5.45;1.23;;;14.10;63.30;;;;;;5051980;28;20409;-80
2022/11/07 09:59:38;;;;;;;5.38;1.10;;;14.30;62.80;;;;;;5033914;28;20028;-81
2022/11/07 10:02:15;;;;;;;3.40;1.00;;;14.20;62.90;;;;;;5053907;28;20025;-83
2022/11/07 10:04:41;;;;;;;5.50;0.95;;;14.10;62.60;;;;;;5057910;28;20021;-83
2022/11/07 10:07:32;;;;;;;3.63;1.10;;;14.10;61.20;;;;;;5060202;28;20067;-83
2022/11/07 10:10:11;;;;;;;4.85;1.10;;;13.90;61.90;;;;;;5058271;28;20045;-84
2022/11/07 10:12:43;;;;;;;4.68;0.85;;;13.80;62.50;;;;;;5038986;28;20033;-81
2022/11/07 10:15:36;;;;;;;6.38;1.30;;;13.90;62.40;;;;;;5039392;28;20025;-82
2022/11/07 10:18:31;;;;;;;4.78;0.90;;;14.10;62.10;;;;;;5055836;28;20040;-81
2022/11/07 10:20:57;;;;;;;6.40;1.48;;;14.40;60.40;;;;;;5038730;28;20028;-83
2022/11/07 10:23:38;;;;;;;4.72;0.95;;;14.60;60.40;;;;;;5038512;28;20033;-83
2022/11/07 10:26:11;;;;;;;5.25;1.10;;;14.60;60.00;;;;;;5038355;28;20025;-83
2022/11/07 10:29:27;;;;;;;6.22;1.92;;;14.80;59.90;;;;;;5055847;28;20025;-85
2022/11/07 10:32:19;;;;;;;5.70;1.25;;;15.30;58.40;;;;;;5046834;28;20226;-82
2022/11/07 10:35:16;;;;;;;6.45;1.23;;;15.80;56.60;;;;;;5055421;28;20021;-84
2022/11/07 10:37:41;;;;;;;;;;;15.90;54.90;;;;;;5056044;28;20078;-86
2022/11/07 10:40:30;;;;;;;;;;;16.10;55.10;;;;;;5056138;28;19905;-83
2022/11/07 10:42:56;;;;;;;9.23;1.05;;;16.00;55.30;;;;;;5036991;28;20296;-84
2022/11/07 10:45:23;;;;;;;4.40;1.30;;;15.70;55.50;;;;;;5055071;28;20590;-83
2022/11/07 10:47:57;;;;;;;5.60;1.00;;;15.60;56.00;;;;;;5033942;28;20099;-83
2022/11/07 10:50:23;;;;;;;2.38;0.80;;;15.60;55.20;;;;;;5018972;28;20025;-79
2022/11/07 10:52:52;;;;;;;3.63;0.80;;;15.30;56.40;;;;;;5034795;28;20118;-82
2022/11/07 10:55:18;;;;;;;7.18;1.00;;;15.30;56.30;;;;;;5035185;28;20057;-80
2022/11/07 10:57:49;;;;;;;3.97;0.80;;;15.50;56.80;;;;;;5034274;28;20068;-82
2022/11/07 11:00:25;;;;;;;3.13;0.75;;;15.80;55.20;;;;;;5034662;28;20045;-82
2022/11/07 11:02:52;;;;;;;4.90;0.98;;;16.00;54.30;;;;;;5014471;28;20108;-81
2022/11/07 11:05:23;;;;;;;4.75;0.70;;;16.00;53.50;;;;;;5016548;28;20390;-80
2022/11/07 11:07:50;;;;;;;1.48;0.70;;;15.90;54.00;;;;;;5034528;28;20053;-81
2022/11/07 11:10:27;;;;;;;6.53;1.08;;;15.70;54.90;;;;;;5016388;28;20034;-82
2022/11/07 11:12:53;;;;;;;5.13;1.23;;;15.80;54.90;;;;;;5034515;28;20025;-82
2022/11/07 11:15:22;;;;;;;2.63;0.90;;;15.90;54.20;;;;;;5017155;28;20025;-81
2022/11/07 11:18:04;;;;;;;4.10;0.85;;;15.50;53.90;;;;;;5035474;28;20021;-81
2022/11/07 11:20:42;;;;;;;3.40;0.85;;;15.40;54.30;;;;;;5008816;28;20056;-80
2022/11/07 11:23:19;;;;;;;2.55;0.68;;;15.40;54.70;;;;;;5033761;28;20021;-82
2022/11/07 11:25:47;;;;;;;5.03;0.82;;;15.50;53.90;;;;;;5033722;28;20036;-81
2022/11/07 11:28:28;;;;;;;2.53;0.77;;;15.80;52.60;;;;;;5015931;28;20063;-78
2022/11/07 11:31:02;;;;;;;3.92;0.60;;;16.10;51.60;;;;;;5033722;28;20025;-77
2022/11/07 11:33:39;;;;;;;3.65;0.77;;;16.20;51.20;;;;;;5016129;28;20393;-86
2022/11/07 11:36:15;;;;;;;2.78;0.90;;;16.20;50.80;;;;;;5025397;28;20026;-84
2022/11/07 11:38:42;;;;;;;;;;;16.20;51.60;;;;;;5034942;28;20025;-78
2022/11/07 11:41:19;;;;;;;1.95;0.90;;;16.40;52.40;;;;;;5015578;28;19916;-79
2022/11/07 11:43:51;;;;;;;2.63;1.00;;;16.60;51.80;;;;;;5033552;28;20481;-79
2022/11/07 11:46:35;;;;;;;4.10;1.02;;;16.60;51.70;;;;;;5034695;28;20492;-79
2022/11/07 11:49:21;;;;;;;1.77;0.70;;;17.00;50.70;;;;;;5053415;28;20052;-78
2022/11/07 11:52:15;;;;;;;3.67;0.80;;;17.00;50.80;;;;;;5052722;28;20029;-78
2022/11/07 11:54:44;;;;;;;4.22;1.23;;;16.90;49.70;;;;;;5029076;28;20432;-79
2022/11/07 11:57:35;;;;;;;2.58;0.90;;;16.70;51.30;;;;;;5034600;28;20026;-78
2022/11/07 12:00:14;;;;;;;2.92;0.70;;;16.70;50.30;;;;;;5052652;28;20492;-80
2022/11/07 12:02:58;;;;;;;3.03;0.70;;;16.70;50.50;;;;;;5047589;28;20049;-79
2022/11/07 12:06:01;;;;;;;3.25;1.00;;;16.80;50.60;;;;;;5052689;28;20409;-79
2022/11/07 12:08:51;;;;;;;3.45;1.02;;;16.50;51.10;;;;;;5053002;28;20083;-76
2022/11/07 12:11:36;;;;;;;3.15;1.05;;;16.60;51.30;;;;;;5053119;28;20078;-78
2022/11/07 12:14:34;;;;;;;3.15;0.80;;;16.50;50.90;;;;;;5053065;28;20020;-78
2022/11/07 12:17:25;;;;;;;5.40;1.13;;;17.20;48.60;;;;;;5051639;28;20435;-77
2022/11/07 12:20:18;;;;;;;4.40;0.98;;;18.10;46.50;;;;;;5053071;28;20025;-78
2022/11/07 12:23:00;;;;;;;1.85;1.10;;;17.90;44.90;;;;;;5048060;28;20355;-77
2022/11/07 12:25:53;;;;;;;2.55;0.80;;;18.60;43.40;;;;;;5032708;28;20029;-78
2022/11/07 12:28:52;;;;;;;7.65;1.13;;;18.80;42.00;;;;;;5032633;28;20067;-78
2022/11/07 12:32:05;;;;;;;2.17;0.60;;;18.60;43.00;;;;;;5032855;28;20026;-77
2022/11/07 12:34:33;;;;;;;3.15;1.00;;;18.20;43.40;;;;;;4977803;28;20095;-77
2022/11/07 12:37:27;;;;;;;2.20;0.73;;;18.10;43.80;;;;;;5032356;28;20026;-77
2022/11/07 12:40:20;;;;;;;2.00;0.50;;;17.80;44.10;;;;;;5032478;28;20056;-77
2022/11/07 12:43:04;;;;;;;3.58;0.85;;;17.60;44.10;;;;;;5032449;28;20021;-77
2022/11/07 12:46:11;;;;;;;6.50;1.00;;;17.20;45.40;;;;;;5032276;28;20371;-76
2022/11/07 12:49:02;;;;;;;5.60;1.00;;;18.00;43.80;;;;;;5031981;28;20049;-77
2022/11/07 12:52:02;;;;;;;1.88;0.70;;;18.90;42.20;;;;;;5032488;28;20087;-79
2022/11/07 12:54:50;;;;;;;1.92;0.82;;;19.10;41.10;;;;;;5024715;28;20167;-79
2022/11/07 12:57:24;;;;;;;2.25;0.80;;;19.50;40.40;;;;;;5014792;28;20121;-81
2022/11/07 13:00:11;;;;;;;3.03;1.03;;;20.30;39.00;;;;;;5032453;28;20045;-80
2022/11/07 13:02:59;;;;;;;3.97;1.20;;;21.60;35.80;;;;;;5032994;28;20056;-79
2022/11/07 13:05:33;;;;;;;4.38;0.82;;;22.50;33.60;;;;;;5031910;28;20087;-78
2022/11/07 13:08:25;;;;;;;3.28;1.00;;;22.60;32.60;;;;;;5032364;28;20029;-79
2022/11/07 13:11:17;;;;;;;2.38;0.90;;;22.70;32.80;;;;;;5032520;28;20564;-79
2022/11/07 13:13:53;;;;;;;2.25;0.85;;;22.80;32.50;;;;;;5032183;28;20060;-80
2022/11/07 13:16:25;;;;;;;6.20;1.20;;;24.10;30.80;;;;;;5032265;28;20041;-78